sensor_id;sensor_type;location;lat;lon;timestamp;P1;durP1;ratioP1;P2;durP2;ratioP2
50363;SDS011;36272;59.400;17.982;2022-11-30T00:04:27;16.00;;;8.32;;
50363;SDS011;36272;59.400;17.982;2022-11-30T00:09:28;11.48;;;7.72;;
50363;SDS011;36272;59.400;17.982;2022-11-30T00:14:42;13.80;;;8.05;;
50363;SDS011;36272;59.400;17.982;2022-11-30T00:19:52;11.85;;;7.07;;
50363;SDS011;36272;59.400;17.982;2022-11-30T00:24:54;13.50;;;7.53;;
50363;SDS011;36272;59.400;17.982;2022-11-30T00:29:56;15.68;;;8.77;;
50363;SDS011;36272;59.400;17.982;2022-11-30T00:41:51;14.63;;;8.60;;
50363;SDS011;36272;59.400;17.982;2022-11-30T00:46:52;15.30;;;8.63;;
50363;SDS011;36272;59.400;17.982;2022-11-30T00:51:54;18.40;;;9.45;;
50363;SDS011;36272;59.400;17.982;2022-11-30T00:57:08;16.92;;;9.38;;
50363;SDS011;36272;59.400;17.982;2022-11-30T01:02:38;15.57;;;8.15;;
50363;SDS011;36272;59.400;17.982;2022-11-30T01:07:40;14.55;;;7.80;;
50363;SDS011;36272;59.400;17.982;2022-11-30T01:12:41;14.38;;;8.18;;
50363;SDS011;36272;59.400;17.982;2022-11-30T01:17:43;13.40;;;8.05;;
50363;SDS011;36272;59.400;17.982;2022-11-30T01:22:48;15.98;;;8.80;;
50363;SDS011;36272;59.400;17.982;2022-11-30T01:27:49;14.82;;;8.60;;
50363;SDS011;36272;59.400;17.982;2022-11-30T01:32:51;15.20;;;8.55;;
50363;SDS011;36272;59.400;17.982;2022-11-30T01:38:03;18.92;;;8.80;;
50363;SDS011;36272;59.400;17.982;2022-11-30T01:43:08;13.30;;;8.27;;
50363;SDS011;36272;59.400;17.982;2022-11-30T01:48:12;14.48;;;8.07;;
50363;SDS011;36272;59.400;17.982;2022-11-30T01:53:13;12.70;;;8.30;;
50363;SDS011;36272;59.400;17.982;2022-11-30T01:58:18;14.10;;;7.88;;
50363;SDS011;36272;59.400;17.982;2022-11-30T02:03:39;12.27;;;7.68;;
50363;SDS011;36272;59.400;17.982;2022-11-30T02:08:46;15.43;;;8.52;;
50363;SDS011;36272;59.400;17.982;2022-11-30T02:30:22;13.25;;;8.32;;
50363;SDS011;36272;59.400;17.982;2022-11-30T02:35:30;13.23;;;8.52;;
50363;SDS011;36272;59.400;17.982;2022-11-30T02:40:35;13.18;;;8.65;;
50363;SDS011;36272;59.400;17.982;2022-11-30T02:45:40;12.57;;;7.85;;
50363;SDS011;36272;59.400;17.982;2022-11-30T02:51:04;13.68;;;8.85;;
50363;SDS011;36272;59.400;17.982;2022-11-30T02:56:13;14.98;;;9.48;;
50363;SDS011;36272;59.400;17.982;2022-11-30T03:01:15;16.67;;;10.65;;
50363;SDS011;36272;59.400;17.982;2022-11-30T03:06:17;20.92;;;10.30;;
50363;SDS011;36272;59.400;17.982;2022-11-30T03:11:28;18.58;;;10.73;;
50363;SDS011;36272;59.400;17.982;2022-11-30T03:16:36;18.60;;;10.35;;
50363;SDS011;36272;59.400;17.982;2022-11-30T03:21:48;19.20;;;10.90;;
50363;SDS011;36272;59.400;17.982;2022-11-30T03:26:50;17.77;;;10.20;;
50363;SDS011;36272;59.400;17.982;2022-11-30T03:31:52;20.35;;;9.95;;
50363;SDS011;36272;59.400;17.982;2022-11-30T03:36:54;18.80;;;10.25;;
50363;SDS011;36272;59.400;17.982;2022-11-30T03:41:56;17.73;;;9.82;;
50363;SDS011;36272;59.400;17.982;2022-11-30T03:46:57;21.90;;;10.48;;
50363;SDS011;36272;59.400;17.982;2022-11-30T03:52:02;19.85;;;10.48;;
50363;SDS011;36272;59.400;17.982;2022-11-30T03:57:03;19.30;;;10.55;;
50363;SDS011;36272;59.400;17.982;2022-11-30T04:02:05;20.55;;;10.15;;
50363;SDS011;36272;59.400;17.982;2022-11-30T04:07:07;21.77;;;10.65;;
50363;SDS011;36272;59.400;17.982;2022-11-30T04:12:08;19.67;;;10.40;;
50363;SDS011;36272;59.400;17.982;2022-11-30T04:17:12;21.17;;;9.88;;
50363;SDS011;36272;59.400;17.982;2022-11-30T04:22:14;21.25;;;10.27;;
50363;SDS011;36272;59.400;17.982;2022-11-30T04:27:16;20.90;;;10.43;;
50363;SDS011;36272;59.400;17.982;2022-11-30T04:32:17;22.58;;;10.57;;
50363;SDS011;36272;59.400;17.982;2022-11-30T04:37:20;22.70;;;10.45;;
50363;SDS011;36272;59.400;17.982;2022-11-30T04:42:22;22.52;;;10.85;;
50363;SDS011;36272;59.400;17.982;2022-11-30T04:47:23;23.45;;;11.27;;
50363;SDS011;36272;59.400;17.982;2022-11-30T04:52:33;19.95;;;11.02;;
50363;SDS011;36272;59.400;17.982;2022-11-30T04:57:37;27.50;;;12.83;;
50363;SDS011;36272;59.400;17.982;2022-11-30T05:02:39;23.42;;;11.30;;
50363;SDS011;36272;59.400;17.982;2022-11-30T05:07:40;27.73;;;12.05;;
50363;SDS011;36272;59.400;17.982;2022-11-30T05:12:42;27.30;;;12.30;;
50363;SDS011;36272;59.400;17.982;2022-11-30T05:17:45;20.25;;;11.07;;
50363;SDS011;36272;59.400;17.982;2022-11-30T05:23:11;24.52;;;11.63;;
50363;SDS011;36272;59.400;17.982;2022-11-30T05:28:13;25.67;;;12.07;;
50363;SDS011;36272;59.400;17.982;2022-11-30T05:33:15;21.63;;;10.95;;
50363;SDS011;36272;59.400;17.982;2022-11-30T05:38:16;24.42;;;11.57;;
50363;SDS011;36272;59.400;17.982;2022-11-30T05:43:18;23.85;;;11.55;;
50363;SDS011;36272;59.400;17.982;2022-11-30T05:48:20;21.08;;;10.80;;
50363;SDS011;36272;59.400;17.982;2022-11-30T05:53:21;26.17;;;11.52;;
50363;SDS011;36272;59.400;17.982;2022-11-30T05:58:23;24.40;;;10.95;;
50363;SDS011;36272;59.400;17.982;2022-11-30T06:03:28;23.63;;;11.15;;
50363;SDS011;36272;59.400;17.982;2022-11-30T06:08:39;27.60;;;11.73;;
50363;SDS011;36272;59.400;17.982;2022-11-30T06:13:41;28.70;;;11.80;;
50363;SDS011;36272;59.400;17.982;2022-11-30T06:19:04;24.90;;;11.32;;
50363;SDS011;36272;59.400;17.982;2022-11-30T06:24:06;25.35;;;11.95;;
50363;SDS011;36272;59.400;17.982;2022-11-30T06:29:11;26.60;;;11.90;;
50363;SDS011;36272;59.400;17.982;2022-11-30T06:34:17;30.08;;;13.70;;
50363;SDS011;36272;59.400;17.982;2022-11-30T06:39:19;28.38;;;12.50;;
50363;SDS011;36272;59.400;17.982;2022-11-30T06:50:12;27.88;;;12.98;;
50363;SDS011;36272;59.400;17.982;2022-11-30T06:55:15;26.75;;;12.15;;
50363;SDS011;36272;59.400;17.982;2022-11-30T07:00:17;28.48;;;12.90;;
50363;SDS011;36272;59.400;17.982;2022-11-30T07:05:22;30.65;;;13.98;;
50363;SDS011;36272;59.400;17.982;2022-11-30T07:10:35;28.48;;;13.18;;
50363;SDS011;36272;59.400;17.982;2022-11-30T07:38:16;34.25;;;14.07;;
50363;SDS011;36272;59.400;17.982;2022-11-30T07:43:18;33.63;;;15.55;;
50363;SDS011;36272;59.400;17.982;2022-11-30T07:48:20;39.75;;;14.43;;
50363;SDS011;36272;59.400;17.982;2022-11-30T07:53:22;34.38;;;14.40;;
50363;SDS011;36272;59.400;17.982;2022-11-30T07:58:23;27.63;;;12.40;;
50363;SDS011;36272;59.400;17.982;2022-11-30T08:03:25;30.42;;;13.00;;
50363;SDS011;36272;59.400;17.982;2022-11-30T08:08:33;28.30;;;12.32;;
50363;SDS011;36272;59.400;17.982;2022-11-30T08:19:57;31.20;;;13.50;;
50363;SDS011;36272;59.400;17.982;2022-11-30T08:25:37;29.15;;;12.55;;
50363;SDS011;36272;59.400;17.982;2022-11-30T08:31:07;24.95;;;12.20;;
50363;SDS011;36272;59.400;17.982;2022-11-30T08:42:21;33.83;;;14.00;;
50363;SDS011;36272;59.400;17.982;2022-11-30T08:48:12;28.58;;;12.05;;
50363;SDS011;36272;59.400;17.982;2022-11-30T08:54:17;29.70;;;11.95;;
50363;SDS011;36272;59.400;17.982;2022-11-30T08:59:18;23.95;;;11.75;;
50363;SDS011;36272;59.400;17.982;2022-11-30T09:23:05;28.33;;;12.68;;
50363;SDS011;36272;59.400;17.982;2022-11-30T09:34:17;28.55;;;12.93;;
50363;SDS011;36272;59.400;17.982;2022-11-30T10:08:44;29.95;;;10.98;;
50363;SDS011;36272;59.400;17.982;2022-11-30T10:14:10;24.67;;;11.38;;
50363;SDS011;36272;59.400;17.982;2022-11-30T10:19:51;27.55;;;11.57;;
50363;SDS011;36272;59.400;17.982;2022-11-30T10:25:23;21.02;;;10.80;;
50363;SDS011;36272;59.400;17.982;2022-11-30T10:30:33;27.00;;;11.07;;
50363;SDS011;36272;59.400;17.982;2022-11-30T10:35:40;24.75;;;11.80;;
50363;SDS011;36272;59.400;17.982;2022-11-30T10:46:01;25.05;;;11.10;;
50363;SDS011;36272;59.400;17.982;2022-11-30T10:57:31;24.48;;;11.90;;
50363;SDS011;36272;59.400;17.982;2022-11-30T11:02:41;24.13;;;10.70;;
50363;SDS011;36272;59.400;17.982;2022-11-30T11:08:33;21.92;;;10.18;;
50363;SDS011;36272;59.400;17.982;2022-11-30T11:18:52;25.27;;;11.07;;
50363;SDS011;36272;59.400;17.982;2022-11-30T11:23:57;20.90;;;10.55;;
50363;SDS011;36272;59.400;17.982;2022-11-30T11:28:59;20.73;;;10.50;;
50363;SDS011;36272;59.400;17.982;2022-11-30T11:34:04;20.80;;;10.27;;
50363;SDS011;36272;59.400;17.982;2022-11-30T11:39:24;29.15;;;11.30;;
50363;SDS011;36272;59.400;17.982;2022-11-30T11:51:26;38.35;;;20.13;;
50363;SDS011;36272;59.400;17.982;2022-11-30T11:56:36;24.88;;;12.90;;
50363;SDS011;36272;59.400;17.982;2022-11-30T12:01:44;20.40;;;10.80;;
50363;SDS011;36272;59.400;17.982;2022-11-30T12:06:50;22.48;;;10.52;;
50363;SDS011;36272;59.400;17.982;2022-11-30T12:11:54;22.27;;;10.73;;
50363;SDS011;36272;59.400;17.982;2022-11-30T12:55:31;21.77;;;10.70;;
50363;SDS011;36272;59.400;17.982;2022-11-30T13:00:42;25.85;;;11.43;;
50363;SDS011;36272;59.400;17.982;2022-11-30T13:05:58;23.60;;;10.88;;
50363;SDS011;36272;59.400;17.982;2022-11-30T13:11:15;22.50;;;12.17;;
50363;SDS011;36272;59.400;17.982;2022-11-30T13:16:22;25.88;;;12.65;;
50363;SDS011;36272;59.400;17.982;2022-11-30T13:21:30;22.42;;;11.27;;
50363;SDS011;36272;59.400;17.982;2022-11-30T13:26:41;26.65;;;12.73;;
50363;SDS011;36272;59.400;17.982;2022-11-30T13:31:56;24.88;;;11.68;;
50363;SDS011;36272;59.400;17.982;2022-11-30T13:37:07;27.20;;;11.60;;
50363;SDS011;36272;59.400;17.982;2022-11-30T13:42:31;27.00;;;12.80;;
50363;SDS011;36272;59.400;17.982;2022-11-30T13:47:52;29.55;;;13.27;;
50363;SDS011;36272;59.400;17.982;2022-11-30T13:58:08;39.60;;;14.20;;
50363;SDS011;36272;59.400;17.982;2022-11-30T14:13:27;26.92;;;11.63;;
50363;SDS011;36272;59.400;17.982;2022-11-30T14:18:38;32.65;;;11.68;;
50363;SDS011;36272;59.400;17.982;2022-11-30T14:29:12;19.65;;;8.85;;
50363;SDS011;36272;59.400;17.982;2022-11-30T14:39:47;21.15;;;9.57;;
50363;SDS011;36272;59.400;17.982;2022-11-30T14:44:50;23.15;;;9.82;;
50363;SDS011;36272;59.400;17.982;2022-11-30T14:49:53;31.85;;;12.15;;
50363;SDS011;36272;59.400;17.982;2022-11-30T14:55:06;38.88;;;14.40;;
50363;SDS011;36272;59.400;17.982;2022-11-30T15:00:18;39.08;;;14.90;;
50363;SDS011;36272;59.400;17.982;2022-11-30T15:05:22;35.00;;;15.27;;
50363;SDS011;36272;59.400;17.982;2022-11-30T15:10:29;29.70;;;13.32;;
50363;SDS011;36272;59.400;17.982;2022-11-30T15:15:34;30.23;;;13.23;;
50363;SDS011;36272;59.400;17.982;2022-11-30T15:20:41;34.30;;;13.45;;
50363;SDS011;36272;59.400;17.982;2022-11-30T15:25:53;28.60;;;11.50;;
50363;SDS011;36272;59.400;17.982;2022-11-30T15:30:55;30.40;;;10.93;;
50363;SDS011;36272;59.400;17.982;2022-11-30T15:41:18;22.27;;;8.90;;
50363;SDS011;36272;59.400;17.982;2022-11-30T15:46:52;24.65;;;10.35;;
50363;SDS011;36272;59.400;17.982;2022-11-30T15:57:14;26.08;;;10.45;;
50363;SDS011;36272;59.400;17.982;2022-11-30T16:02:24;26.50;;;12.25;;
50363;SDS011;36272;59.400;17.982;2022-11-30T16:07:34;28.55;;;11.68;;
50363;SDS011;36272;59.400;17.982;2022-11-30T16:12:43;22.63;;;11.63;;
50363;SDS011;36272;59.400;17.982;2022-11-30T16:17:49;23.52;;;11.52;;
50363;SDS011;36272;59.400;17.982;2022-11-30T16:22:51;32.30;;;14.88;;
50363;SDS011;36272;59.400;17.982;2022-11-30T16:27:56;29.25;;;12.88;;
50363;SDS011;36272;59.400;17.982;2022-11-30T16:33:25;25.42;;;11.45;;
50363;SDS011;36272;59.400;17.982;2022-11-30T16:38:27;26.67;;;11.75;;
50363;SDS011;36272;59.400;17.982;2022-11-30T16:43:29;25.70;;;12.07;;
50363;SDS011;36272;59.400;17.982;2022-11-30T16:48:31;28.63;;;12.68;;
50363;SDS011;36272;59.400;17.982;2022-11-30T16:53:35;26.88;;;12.25;;
50363;SDS011;36272;59.400;17.982;2022-11-30T16:58:37;29.33;;;12.73;;
50363;SDS011;36272;59.400;17.982;2022-11-30T17:03:39;27.70;;;13.15;;
50363;SDS011;36272;59.400;17.982;2022-11-30T17:08:41;27.25;;;12.65;;
50363;SDS011;36272;59.400;17.982;2022-11-30T17:13:49;32.03;;;12.60;;
50363;SDS011;36272;59.400;17.982;2022-11-30T17:18:53;29.98;;;13.40;;
50363;SDS011;36272;59.400;17.982;2022-11-30T17:23:55;29.77;;;12.88;;
50363;SDS011;36272;59.400;17.982;2022-11-30T17:28:57;33.55;;;13.57;;
50363;SDS011;36272;59.400;17.982;2022-11-30T17:34:00;28.58;;;12.57;;
50363;SDS011;36272;59.400;17.982;2022-11-30T17:39:08;28.65;;;13.02;;
50363;SDS011;36272;59.400;17.982;2022-11-30T17:49:34;35.97;;;14.40;;
50363;SDS011;36272;59.400;17.982;2022-11-30T17:54:38;35.67;;;14.45;;
50363;SDS011;36272;59.400;17.982;2022-11-30T17:59:42;33.00;;;14.43;;
50363;SDS011;36272;59.400;17.982;2022-11-30T18:11:05;34.80;;;14.85;;
50363;SDS011;36272;59.400;17.982;2022-11-30T18:16:13;40.63;;;16.38;;
50363;SDS011;36272;59.400;17.982;2022-11-30T18:21:23;39.25;;;18.33;;
50363;SDS011;36272;59.400;17.982;2022-11-30T18:26:34;40.90;;;16.80;;
50363;SDS011;36272;59.400;17.982;2022-11-30T18:31:51;45.35;;;19.38;;
50363;SDS011;36272;59.400;17.982;2022-11-30T18:36:58;45.80;;;21.73;;
50363;SDS011;36272;59.400;17.982;2022-11-30T18:42:01;64.80;;;27.63;;
50363;SDS011;36272;59.400;17.982;2022-11-30T18:47:03;58.47;;;27.70;;
50363;SDS011;36272;59.400;17.982;2022-11-30T18:52:04;57.50;;;27.08;;
50363;SDS011;36272;59.400;17.982;2022-11-30T18:57:06;54.65;;;25.05;;
50363;SDS011;36272;59.400;17.982;2022-11-30T19:02:08;54.97;;;27.27;;
50363;SDS011;36272;59.400;17.982;2022-11-30T19:07:09;62.80;;;28.90;;
50363;SDS011;36272;59.400;17.982;2022-11-30T19:12:11;55.00;;;25.35;;
50363;SDS011;36272;59.400;17.982;2022-11-30T19:17:13;49.28;;;25.33;;
50363;SDS011;36272;59.400;17.982;2022-11-30T19:22:14;55.20;;;25.20;;
50363;SDS011;36272;59.400;17.982;2022-11-30T19:27:16;55.05;;;26.98;;
50363;SDS011;36272;59.400;17.982;2022-11-30T19:32:18;53.47;;;25.05;;
50363;SDS011;36272;59.400;17.982;2022-11-30T19:37:19;51.83;;;23.77;;
50363;SDS011;36272;59.400;17.982;2022-11-30T19:42:21;53.83;;;24.85;;
50363;SDS011;36272;59.400;17.982;2022-11-30T19:47:26;57.47;;;26.05;;
50363;SDS011;36272;59.400;17.982;2022-11-30T19:52:27;42.28;;;20.70;;
50363;SDS011;36272;59.400;17.982;2022-11-30T19:57:30;54.67;;;24.30;;
50363;SDS011;36272;59.400;17.982;2022-11-30T20:02:42;45.22;;;22.02;;
50363;SDS011;36272;59.400;17.982;2022-11-30T20:07:45;47.78;;;20.98;;
50363;SDS011;36272;59.400;17.982;2022-11-30T20:13:21;49.80;;;20.83;;
50363;SDS011;36272;59.400;17.982;2022-11-30T20:18:26;43.95;;;19.83;;
50363;SDS011;36272;59.400;17.982;2022-11-30T20:24:42;42.63;;;19.88;;
50363;SDS011;36272;59.400;17.982;2022-11-30T20:37:00;42.97;;;20.05;;
50363;SDS011;36272;59.400;17.982;2022-11-30T20:48:57;44.15;;;20.05;;
50363;SDS011;36272;59.400;17.982;2022-11-30T20:54:08;45.92;;;21.23;;
50363;SDS011;36272;59.400;17.982;2022-11-30T21:00:13;46.42;;;19.60;;
50363;SDS011;36272;59.400;17.982;2022-11-30T21:05:26;41.03;;;20.23;;
50363;SDS011;36272;59.400;17.982;2022-11-30T21:10:59;39.17;;;19.45;;
50363;SDS011;36272;59.400;17.982;2022-11-30T21:16:22;41.95;;;20.10;;
50363;SDS011;36272;59.400;17.982;2022-11-30T21:33:30;49.40;;;22.77;;
50363;SDS011;36272;59.400;17.982;2022-11-30T21:44:14;51.55;;;23.25;;
50363;SDS011;36272;59.400;17.982;2022-11-30T21:49:25;55.90;;;24.85;;
50363;SDS011;36272;59.400;17.982;2022-11-30T22:00:41;45.38;;;21.83;;
50363;SDS011;36272;59.400;17.982;2022-11-30T22:05:56;49.20;;;23.17;;
50363;SDS011;36272;59.400;17.982;2022-11-30T22:11:20;53.25;;;23.75;;
50363;SDS011;36272;59.400;17.982;2022-11-30T22:16:25;48.10;;;22.65;;
50363;SDS011;36272;59.400;17.982;2022-11-30T22:21:35;51.13;;;23.40;;
50363;SDS011;36272;59.400;17.982;2022-11-30T22:26:45;52.45;;;22.98;;
50363;SDS011;36272;59.400;17.982;2022-11-30T22:32:09;55.63;;;25.15;;
50363;SDS011;36272;59.400;17.982;2022-11-30T22:37:31;49.05;;;21.58;;
50363;SDS011;36272;59.400;17.982;2022-11-30T22:43:09;44.78;;;21.98;;
50363;SDS011;36272;59.400;17.982;2022-11-30T22:48:12;44.28;;;21.75;;
50363;SDS011;36272;59.400;17.982;2022-11-30T22:53:29;46.65;;;20.92;;
50363;SDS011;36272;59.400;17.982;2022-11-30T22:58:37;45.03;;;20.38;;
50363;SDS011;36272;59.400;17.982;2022-11-30T23:28:08;42.25;;;20.50;;
50363;SDS011;36272;59.400;17.982;2022-11-30T23:33:14;46.20;;;21.65;;
50363;SDS011;36272;59.400;17.982;2022-11-30T23:38:16;47.83;;;22.05;;
50363;SDS011;36272;59.400;17.982;2022-11-30T23:43:18;42.55;;;20.70;;
50363;SDS011;36272;59.400;17.982;2022-11-30T23:48:19;41.40;;;20.05;;
50363;SDS011;36272;59.400;17.982;2022-11-30T23:53:21;45.83;;;20.67;;
50363;SDS011;36272;59.400;17.982;2022-11-30T23:58:23;52.70;;;21.83;;
